createdAt,value
2018-02-22T09:26:15.430Z,16.50
2018-02-22T09:28:43.741Z,16.50
2018-02-22T09:31:11.252Z,16.50
2018-02-22T09:33:38.788Z,16.50
2018-02-22T09:36:06.379Z,16.50
2018-02-22T09:38:33.895Z,16.60
2018-02-22T09:41:01.412Z,16.60
2018-02-22T09:43:28.928Z,16.60
2018-02-22T09:45:56.442Z,16.50
2018-02-22T09:48:23.969Z,16.60
2018-02-22T09:50:51.481Z,16.50
2018-02-22T09:53:19.754Z,16.50
2018-02-22T09:55:47.282Z,16.50
2018-02-22T09:58:14.793Z,16.50
2018-02-22T10:00:43.087Z,16.50
2018-02-22T10:03:10.601Z,16.50
2018-02-22T10:05:38.113Z,16.50
2018-02-22T10:08:06.424Z,16.50
2018-02-22T10:10:33.953Z,16.50
2018-02-22T10:13:02.629Z,16.50
2018-02-22T10:15:31.050Z,16.50
2018-02-22T10:17:58.576Z,16.40
2018-02-22T10:20:26.865Z,16.50
2018-02-22T10:22:55.154Z,16.40
2018-02-22T10:25:22.665Z,16.40
2018-02-22T10:27:50.173Z,16.30
2018-02-22T10:30:18.457Z,16.40
2018-02-22T10:32:46.730Z,16.80
2018-02-22T10:35:15.007Z,16.90
2018-02-22T10:37:43.281Z,16.90
2018-02-22T10:40:10.797Z,16.90
2018-02-22T10:42:38.316Z,16.90
2018-02-22T10:45:06.598Z,17.00
2018-02-22T10:47:34.879Z,16.90
2018-02-22T10:50:03.714Z,16.90
2018-02-22T10:52:31.201Z,16.90
2018-02-22T10:54:58.723Z,16.80
2018-02-22T10:57:26.242Z,16.80
2018-02-22T10:59:53.760Z,16.70
2018-02-22T11:02:27.020Z,16.70
2018-02-22T11:04:55.297Z,16.70
2018-02-22T11:07:23.584Z,16.70
2018-02-22T11:09:51.870Z,16.60
2018-02-22T11:12:20.148Z,16.60
2018-02-22T11:14:47.669Z,16.60
2018-02-22T11:17:15.192Z,16.60
2018-02-22T11:19:42.706Z,16.60
2018-02-22T11:22:10.235Z,16.60
2018-02-22T11:24:37.752Z,16.60
2018-02-22T11:27:06.027Z,16.60
2018-02-22T11:29:34.315Z,16.60
2018-02-22T11:32:02.587Z,16.60
2018-02-22T11:34:30.112Z,16.60
2018-02-22T11:36:57.637Z,16.60
2018-02-22T11:39:26.085Z,16.50
2018-02-22T11:41:53.605Z,16.50
2018-02-22T11:44:21.127Z,16.50
2018-02-22T11:46:50.419Z,16.50
2018-02-22T11:49:17.940Z,16.50
2018-02-22T11:51:45.453Z,16.50
2018-02-22T11:54:12.972Z,16.50
2018-02-22T11:56:40.530Z,16.50
2018-02-22T11:59:08.048Z,16.50
2018-02-22T12:01:36.333Z,16.50
2018-02-22T12:04:04.629Z,16.50
2018-02-22T12:06:32.146Z,16.40
2018-02-22T12:08:59.656Z,16.40
2018-02-22T12:11:27.190Z,16.40
2018-02-22T12:13:54.735Z,16.50
2018-02-22T12:16:22.588Z,16.50
2018-02-22T12:18:50.128Z,16.50
2018-02-22T12:21:17.644Z,16.50
2018-02-22T12:23:45.150Z,16.40
2018-02-22T12:26:12.672Z,16.50
2018-02-22T12:28:40.183Z,16.40
2018-02-22T12:31:07.703Z,16.40
2018-02-22T12:33:35.314Z,16.40
2018-02-22T12:36:02.838Z,16.40
2018-02-22T12:38:30.376Z,16.40
2018-02-22T12:40:57.909Z,16.40
2018-02-22T12:43:25.421Z,16.40
2018-02-22T12:45:52.944Z,16.40
2018-02-22T12:48:20.458Z,16.30
2018-02-22T12:50:47.962Z,16.40
2018-02-22T12:53:15.465Z,16.40
2018-02-22T12:55:42.973Z,16.30
2018-02-22T12:58:10.483Z,16.40
2018-02-22T13:00:38.938Z,16.40
2018-02-22T13:03:06.469Z,16.30
2018-02-22T13:05:35.122Z,16.40
2018-02-22T13:08:02.652Z,16.30
2018-02-22T13:10:30.171Z,16.40
2018-02-22T13:12:57.678Z,16.30
2018-02-22T13:15:25.190Z,16.30
2018-02-22T13:17:52.712Z,16.30
2018-02-22T13:20:20.244Z,16.30
2018-02-22T13:22:48.525Z,16.30
2018-02-22T13:25:16.041Z,16.30
2018-02-22T13:27:43.566Z,16.30
2018-02-22T13:30:11.074Z,16.30
2018-02-22T13:33:02.100Z,16.30
2018-02-22T13:35:30.373Z,16.30
2018-02-22T13:38:18.694Z,16.30
2018-02-22T13:40:46.209Z,16.30
2018-02-22T13:43:13.727Z,16.30
2018-02-22T13:45:41.776Z,16.30
2018-02-22T13:48:09.284Z,16.30
2018-02-22T13:50:49.369Z,16.40
2018-02-22T13:53:16.881Z,16.40
2018-02-22T13:55:44.406Z,16.40
2018-02-22T13:58:11.915Z,16.40
2018-02-22T14:00:51.337Z,16.40
2018-02-22T14:03:18.843Z,16.40
2018-02-22T14:05:46.356Z,16.40
2018-02-22T14:08:25.617Z,16.30
2018-02-22T14:10:53.888Z,16.30
2018-02-22T14:13:21.393Z,16.30
2018-02-22T14:15:48.906Z,16.30
2018-02-22T14:18:16.411Z,16.30
2018-02-22T14:20:43.917Z,16.30
2018-02-22T14:23:11.430Z,16.30
2018-02-22T14:25:38.933Z,16.30
2018-02-22T14:28:06.441Z,16.30
2018-02-22T14:30:34.718Z,16.30
2018-02-22T14:33:03.443Z,16.30
2018-02-22T14:35:30.979Z,16.30
2018-02-22T14:37:59.571Z,16.30
2018-02-22T14:40:27.858Z,16.30
2018-02-22T14:42:55.374Z,16.30
2018-02-22T14:45:22.903Z,16.30
2018-02-22T14:47:51.132Z,16.30
2018-02-22T14:50:18.732Z,16.30
2018-02-22T14:52:46.251Z,16.30
2018-02-22T14:55:13.770Z,16.30
2018-02-22T14:57:41.414Z,16.30
2018-02-22T15:00:09.704Z,16.30
2018-02-22T15:02:37.224Z,16.30
2018-02-22T15:05:04.741Z,16.40
2018-02-22T15:07:32.249Z,16.40
2018-02-22T15:09:59.860Z,16.40
2018-02-22T15:12:28.128Z,16.50
2018-02-22T15:14:56.409Z,16.50
2018-02-22T15:17:24.713Z,16.50
2018-02-22T15:19:52.249Z,16.40
2018-02-22T15:22:20.523Z,16.50
2018-02-22T15:24:48.040Z,16.40
2018-02-22T15:27:15.561Z,16.60
2018-02-22T15:29:44.335Z,16.60
2018-02-22T15:32:11.845Z,16.60
2018-02-22T15:34:39.361Z,16.60
2018-02-22T15:37:07.190Z,16.60
2018-02-22T15:39:34.707Z,16.70
2018-02-22T15:42:02.980Z,16.70
2018-02-22T15:44:30.494Z,16.60
2018-02-22T15:46:58.004Z,16.60
2018-02-22T15:49:25.518Z,16.60
2018-02-22T15:51:53.034Z,16.60
2018-02-22T15:54:20.554Z,16.60
2018-02-22T15:56:48.071Z,16.50
2018-02-22T15:59:16.351Z,16.60
2018-02-22T16:01:44.622Z,16.60
2018-02-22T16:04:12.125Z,16.60
2018-02-22T16:06:39.648Z,16.60
2018-02-22T16:09:07.948Z,16.60
2018-02-22T16:11:36.238Z,16.60
2018-02-22T16:14:03.770Z,16.60
2018-02-22T16:16:31.279Z,16.60
2018-02-22T16:18:58.789Z,16.60
2018-02-22T16:21:26.303Z,16.60
2018-02-22T16:23:53.808Z,16.60
2018-02-22T16:26:21.329Z,16.60
2018-02-22T16:28:48.852Z,16.50
2018-02-22T16:31:16.361Z,16.50
2018-02-22T16:33:43.869Z,16.50
2018-02-22T16:36:11.465Z,16.50
2018-02-22T16:38:38.946Z,16.50
2018-02-22T16:41:06.451Z,16.50
2018-02-22T16:43:33.954Z,16.50
2018-02-22T16:46:01.471Z,16.50
2018-02-22T16:48:29.031Z,16.50
2018-02-22T16:50:56.563Z,16.50
2018-02-22T16:53:24.107Z,16.50
2018-02-22T16:55:52.022Z,16.50
2018-02-22T16:58:21.219Z,16.50
2018-02-22T17:00:48.749Z,16.50
2018-02-22T17:03:16.323Z,16.50
2018-02-22T17:05:43.863Z,16.40
2018-02-22T17:08:12.136Z,16.50
2018-02-22T17:10:39.659Z,16.50
2018-02-22T17:13:07.177Z,16.50
2018-02-22T17:15:35.466Z,16.50
2018-02-22T17:18:03.026Z,16.50
2018-02-22T17:20:30.608Z,16.60
2018-02-22T17:22:58.124Z,16.60
2018-02-22T17:25:25.187Z,16.60
2018-02-22T17:27:58.478Z,16.60
2018-02-22T17:30:31.788Z,16.60
2018-02-22T17:33:00.066Z,16.50
2018-02-22T17:35:50.057Z,16.50
2018-02-22T17:38:20.413Z,16.50
2018-02-22T17:40:48.523Z,16.50
2018-02-22T17:43:16.033Z,16.50
2018-02-22T17:45:43.552Z,16.50
2018-02-22T17:48:11.082Z,16.50
2018-02-22T17:50:38.601Z,16.50
2018-02-22T17:53:06.873Z,16.60
2018-02-22T17:55:35.150Z,16.50
2018-02-22T17:58:02.676Z,16.50
2018-02-22T18:00:30.205Z,16.50
2018-02-22T18:02:57.721Z,16.50
2018-02-22T18:05:25.237Z,16.50
2018-02-22T18:07:52.755Z,16.50
2018-02-22T18:10:20.274Z,16.60
2018-02-22T18:12:47.795Z,16.50
2018-02-22T18:15:15.320Z,16.60
2018-02-22T18:17:42.847Z,16.60
2018-02-22T18:20:11.176Z,16.50
2018-02-22T18:22:38.691Z,16.50
2018-02-22T18:25:06.213Z,16.50
2018-02-22T18:27:35.291Z,16.60
